Time;durP1;ratioP1;P1;durP2;ratioP2;P2;SDS_P1;SDS_P2;PMS_P1;PMS_P2;Temp;Humidity;BMP_temperature;BMP_pressure;BME280_temperature;BME280_humidity;BME280_pressure;Samples;Min_cycle;Max_cycle;Signal;HPM_P1;HPM_P2
2020/12/29 06:02:11;;;;;;;;;;;;;;;;;;5065616;28;20446;-67
2020/12/29 06:04:38;;;;;;;8.75;1.45;;;;;;;;;;5072043;28;19912;-66
2020/12/29 06:07:05;;;;;;;9.57;1.50;;;;;;;;;;5068223;28;20067;-67
2020/12/29 06:09:32;;;;;;;14.48;1.67;;;;;;;;;;5068587;28;20490;-66
2020/12/29 06:11:59;;;;;;;8.80;1.67;;;;;;;;;;5068766;28;20086;-67
2020/12/29 06:14:28;;;;;;;14.77;2.40;;;;;;;;;;5065149;28;20025;-67
2020/12/29 06:16:56;;;;;;;17.45;2.63;;;;;;;;;;5069375;28;20401;-66
2020/12/29 06:19:29;;;;;;;19.23;2.17;;;;;;;;;;5070301;28;20029;-66
2020/12/29 06:22:07;;;;;;;15.90;2.88;;;;;;;;;;5067909;28;20457;-67
2020/12/29 06:24:38;;;;;;;13.90;1.65;;;;;;;;;;5068141;28;20031;-67
2020/12/29 06:27:05;;;;;;;16.08;2.10;;;;;;;;;;5068159;28;20477;-66
2020/12/29 06:29:32;;;;;;;8.48;1.50;;;;;;;;;;5065345;28;20017;-65
2020/12/29 06:32:02;;;;;;;20.90;2.95;;;;;;;;;;5068314;28;20586;-67
2020/12/29 06:34:30;;;;;;;13.70;1.80;;;;;;;;;;5069698;28;20024;-66
2020/12/29 06:36:58;;;;;;;25.58;2.90;;;;;;;;;;5067240;28;20086;-66
2020/12/29 06:39:26;;;;;;;18.52;2.65;;;;;;;;;;5067904;28;20458;-66
2020/12/29 06:41:52;;;;;;;13.45;2.05;;;;;;;;;;5067196;28;20034;-66
2020/12/29 06:44:18;;;;;;;23.40;2.67;;;;;;;;;;5063321;28;20106;-66
2020/12/29 06:46:56;;;;;;;21.73;2.28;;;;;;;;;;5071184;28;20445;-66
2020/12/29 06:49:23;;;;;;;18.98;2.80;;;;;;;;;;5070582;28;20059;-63
2020/12/29 06:52:09;;;;;;;22.13;2.90;;;;;;;;;;5067102;28;20040;-65
2020/12/29 06:55:13;;;;;;;13.00;2.75;;;;;;;;;;5067173;28;20021;-69
2020/12/29 06:57:39;;;;;;;17.15;2.40;;;;;;;;;;5047894;28;20061;-70
2020/12/29 07:00:11;;;;;;;23.52;2.58;;;;;;;;;;5047285;28;20453;-69
2020/12/29 07:02:38;;;;;;;20.02;2.60;;;;;;;;;;5033111;28;20072;-69
2020/12/29 07:05:14;;;;;;;18.27;2.13;;;;;;;;;;5030323;28;20029;-69
2020/12/29 07:07:46;;;;;;;18.77;2.08;;;;;;;;;;5030967;28;20030;-69
2020/12/29 07:10:14;;;;;;;23.35;2.20;;;;;;;;;;5030287;28;20132;-69
2020/12/29 07:12:42;;;;;;;19.38;2.53;;;;;;;;;;5030227;28;20513;-69
2020/12/29 07:15:08;;;;;;;18.20;1.55;;;;;;;;;;5030393;28;20553;-69
2020/12/29 07:17:34;;;;;;;19.13;2.42;;;;;;;;;;5030748;28;20102;-69
2020/12/29 07:20:00;;;;;;;23.80;2.50;;;;;;;;;;5029927;28;20509;-70
2020/12/29 07:22:27;;;;;;;11.27;1.88;;;;;;;;;;5028663;28;20519;-67
2020/12/29 07:24:55;;;;;;;19.08;1.75;;;;;;;;;;5030195;28;20105;-67
2020/12/29 07:27:21;;;;;;;26.92;2.33;;;;;;;;;;5031736;28;20582;-69
2020/12/29 07:29:57;;;;;;;18.73;2.58;;;;;;;;;;5049693;28;20490;-70
2020/12/29 07:32:23;;;;;;;13.50;2.17;;;;;;;;;;5035144;28;20064;-71
2020/12/29 07:34:50;;;;;;;21.90;1.80;;;;;;;;;;5052617;28;20039;-67
2020/12/29 07:37:19;;;;;;;19.27;2.33;;;;;;;;;;5049922;28;20041;-68
2020/12/29 07:39:45;;;;;;;15.98;2.08;;;;;;;;;;5049569;28;20033;-69
2020/12/29 07:42:13;;;;;;;18.27;1.83;;;;;;;;;;5049351;28;20025;-68
2020/12/29 07:44:39;;;;;;;22.58;2.33;;;;;;;;;;5051261;28;20452;-64
2020/12/29 07:47:05;;;;;;;17.08;3.05;;;;;;;;;;5050839;28;20379;-69
2020/12/29 07:49:31;;;;;;;27.35;2.65;;;;;;;;;;5051702;28;20021;-71
2020/12/29 07:51:57;;;;;;;18.52;3.22;;;;;;;;;;5051102;28;20021;-70
2020/12/29 07:54:23;;;;;;;25.48;2.50;;;;;;;;;;5051545;28;20104;-69
2020/12/29 07:56:49;;;;;;;19.23;3.75;;;;;;;;;;5049998;28;20060;-70
2020/12/29 07:59:16;;;;;;;25.55;3.00;;;;;;;;;;5048663;28;20028;-70
2020/12/29 08:01:50;;;;;;;25.75;3.00;;;;;;;;;;5051508;28;20120;-70
2020/12/29 08:04:23;;;;;;;35.10;3.55;;;;;;;;;;5048957;28;20662;-69
2020/12/29 08:06:49;;;;;;;26.15;3.03;;;;;;;;;;5048875;28;20491;-68
2020/12/29 08:09:15;;;;;;;30.27;3.80;;;;;;;;;;5049241;28;20025;-69
2020/12/29 08:11:41;;;;;;;30.80;2.92;;;;;;;;;;5049886;28;20114;-63
2020/12/29 08:14:07;;;;;;;23.50;3.13;;;;;;;;;;5047348;28;20032;-64
2020/12/29 08:16:34;;;;;;;14.02;2.25;;;;;;;;;;5051085;28;20029;-63
2020/12/29 08:19:01;;;;;;;18.52;2.30;;;;;;;;;;5048497;28;20039;-63
2020/12/29 08:21:28;;;;;;;17.83;3.30;;;;;;;;;;5050149;28;20071;-65
2020/12/29 08:23:56;;;;;;;14.32;2.08;;;;;;;;;;5048621;28;20100;-62
2020/12/29 08:26:23;;;;;;;17.40;2.08;;;;;;;;;;5048415;28;20040;-63
2020/12/29 08:28:50;;;;;;;17.13;2.30;;;;;;;;;;5050950;28;20052;-61
2020/12/29 08:31:20;;;;;;;16.00;2.13;;;;;;;;;;5048208;28;20090;-64
2020/12/29 08:33:49;;;;;;;24.63;3.47;;;;;;;;;;5049722;28;20474;-63
2020/12/29 08:36:42;;;;;;;15.20;2.70;;;;;;;;;;5048015;28;20025;-63
2020/12/29 08:39:28;;;;;;;21.20;3.05;;;;;;;;;;5045738;28;20040;-62
2020/12/29 08:41:54;;;;;;;;;;;;;;;;;;5047798;28;20108;-63
2020/12/29 08:44:20;;;;;;;23.17;2.88;;;;;;;;;;5048252;28;20353;-55
2020/12/29 08:46:46;;;;;;;27.70;3.45;;;;;;;;;;5051389;28;20087;-60
2020/12/29 08:49:13;;;;;;;20.00;2.50;;;;;;;;;;5048331;28;20044;-59
2020/12/29 08:51:40;;;;;;;22.95;2.95;;;;;;;;;;5048495;28;20044;-60
2020/12/29 08:54:08;;;;;;;15.80;2.13;;;;;;;;;;5047162;28;20027;-59
2020/12/29 08:56:34;;;;;;;19.10;2.40;;;;;;;;;;5048230;28;20064;-61
2020/12/29 08:59:13;;;;;;;19.70;2.20;;;;;;;;;;5050579;28;20053;-58
2020/12/29 09:01:43;;;;;;;16.15;1.88;;;;;;;;;;5050249;28;20054;-59
2020/12/29 09:04:28;;;;;;;24.83;2.78;;;;;;;;;;5047963;28;20025;-58
2020/12/29 09:07:11;;;;;;;17.00;1.63;;;;;;;;;;5047961;28;20453;-59
2020/12/29 09:09:38;;;;;;;22.80;2.15;;;;;;;;;;5046923;28;20330;-59
2020/12/29 09:12:17;;;;;;;17.13;2.72;;;;;;;;;;5047464;28;20379;-59
2020/12/29 09:14:53;;;;;;;13.82;2.00;;;;;;;;;;5047241;28;20032;-59
2020/12/29 09:17:20;;;;;;;17.40;2.17;;;;;;;;;;5032114;28;20021;-59
2020/12/29 09:20:05;;;;;;;17.33;2.15;;;;;;;;;;5050844;28;20025;-59
2020/12/29 09:22:31;;;;;;;12.00;1.83;;;;;;;;;;5048871;28;20029;-59
2020/12/29 09:24:57;;;;;;;11.25;1.95;;;;;;;;;;5046866;28;20036;-59
2020/12/29 09:27:27;;;;;;;10.43;1.00;;;;;;;;;;5047920;28;20044;-58
2020/12/29 09:29:53;;;;;;;15.77;1.42;;;;;;;;;;5047490;28;20075;-59
2020/12/29 09:32:19;;;;;;;11.43;1.30;;;;;;;;;;5047880;28;20033;-58
2020/12/29 09:34:46;;;;;;;9.23;1.60;;;;;;;;;;5051347;28;20029;-59
2020/12/29 09:37:12;;;;;;;9.52;1.60;;;;;;;;;;5047624;28;20029;-59
2020/12/29 09:39:38;;;;;;;21.63;2.00;;;;;;;;;;5047385;28;20557;-59
2020/12/29 09:42:04;;;;;;;15.25;1.77;;;;;;;;;;5047405;28;20410;-59
2020/12/29 09:44:30;;;;;;;17.92;3.13;;;;;;;;;;5048639;28;20021;-59
2020/12/29 09:46:56;;;;;;;12.60;2.22;;;;;;;;;;5048459;28;20025;-58
2020/12/29 09:49:22;;;;;;;13.15;1.75;;;;;;;;;;5049557;28;20643;-59
2020/12/29 09:51:55;;;;;;;17.05;2.85;;;;;;;;;;5046602;28;20036;-59
2020/12/29 09:54:21;;;;;;;11.82;2.30;;;;;;;;;;5045018;28;20036;-59
2020/12/29 09:56:47;;;;;;;13.10;1.70;;;;;;;;;;5047666;28;20021;-59
2020/12/29 09:59:13;;;;;;;15.73;2.63;;;;;;;;;;5047379;28;20024;-59
2020/12/29 10:01:39;;;;;;;9.77;1.45;;;;;;;;;;5037782;28;20056;-59
2020/12/29 10:04:05;;;;;;;14.50;1.65;;;;;;;;;;5041454;28;20041;-59
2020/12/29 10:06:31;;;;;;;15.45;1.75;;;;;;;;;;5036942;28;20575;-59
2020/12/29 10:08:57;;;;;;;12.35;2.28;;;;;;;;;;5036851;28;20067;-59
2020/12/29 10:11:26;;;;;;;18.25;1.90;;;;;;;;;;5034761;28;20036;-58
2020/12/29 10:13:52;;;;;;;11.35;2.08;;;;;;;;;;5035706;28;20379;-59
2020/12/29 10:16:18;;;;;;;13.23;2.38;;;;;;;;;;5035417;28;20086;-59
2020/12/29 10:18:44;;;;;;;10.20;1.77;;;;;;;;;;5035642;28;20411;-58
2020/12/29 10:21:11;;;;;;;11.95;1.50;;;;;;;;;;5034297;28;20028;-59
2020/12/29 10:23:37;;;;;;;33.95;3.67;;;;;;;;;;5034613;28;20033;-59
2020/12/29 10:26:03;;;;;;;26.80;3.92;;;;;;;;;;5036592;28;20064;-59
2020/12/29 10:28:30;;;;;;;17.08;2.53;;;;;;;;;;5032889;28;20064;-59
2020/12/29 10:30:57;;;;;;;11.35;1.80;;;;;;;;;;5035333;28;20051;-58
2020/12/29 10:33:23;;;;;;;7.20;1.73;;;;;;;;;;5032900;28;20562;-59
2020/12/29 10:35:49;;;;;;;12.18;1.48;;;;;;;;;;5034623;28;20090;-59
2020/12/29 10:38:15;;;;;;;4.65;0.95;;;;;;;;;;5035604;28;20647;-59
2020/12/29 10:40:41;;;;;;;7.47;1.08;;;;;;;;;;5037844;28;20041;-59
2020/12/29 10:43:07;;;;;;;8.05;1.50;;;;;;;;;;5044359;28;20025;-59
2020/12/29 10:45:33;;;;;;;6.72;1.00;;;;;;;;;;5049774;28;20044;-59
2020/12/29 10:48:00;;;;;;;9.50;1.90;;;;;;;;;;5049938;28;20035;-59
2020/12/29 10:50:26;;;;;;;8.18;1.02;;;;;;;;;;5046210;28;20044;-59
2020/12/29 10:52:52;;;;;;;9.90;1.67;;;;;;;;;;5050695;28;20025;-59
2020/12/29 10:55:18;;;;;;;6.03;1.50;;;;;;;;;;5048205;28;20033;-59
2020/12/29 10:57:44;;;;;;;15.20;2.50;;;;;;;;;;5045824;28;20490;-59
2020/12/29 11:00:11;;;;;;;10.35;1.52;;;;;;;;;;5037483;28;20041;-59
2020/12/29 11:02:38;;;;;;;13.25;1.15;;;;;;;;;;5042272;28;20041;-59
2020/12/29 11:05:05;;;;;;;14.55;2.55;;;;;;;;;;5080355;28;20544;-59
2020/12/29 11:07:31;;;;;;;12.32;1.20;;;;;;;;;;5043927;28;20021;-59
2020/12/29 11:09:57;;;;;;;10.07;1.10;;;;;;;;;;5045625;28;20029;-59
2020/12/29 11:12:23;;;;;;;17.23;2.15;;;;;;;;;;5050535;28;20025;-59
2020/12/29 11:14:49;;;;;;;8.02;1.92;;;;;;;;;;5049868;28;20037;-59
2020/12/29 11:17:15;;;;;;;13.30;1.95;;;;;;;;;;5046670;28;20438;-59
2020/12/29 11:19:41;;;;;;;18.10;2.13;;;;;;;;;;5053058;28;20032;-59
2020/12/29 11:22:07;;;;;;;14.27;2.10;;;;;;;;;;5050139;28;20033;-59
2020/12/29 11:24:33;;;;;;;16.98;2.20;;;;;;;;;;5050163;28;20029;-59
2020/12/29 11:26:59;;;;;;;15.05;2.17;;;;;;;;;;5049800;28;20025;-59
2020/12/29 11:29:25;;;;;;;8.35;2.28;;;;;;;;;;5050189;28;20100;-59
2020/12/29 11:31:52;;;;;;;12.23;1.50;;;;;;;;;;5052595;28;20095;-59
2020/12/29 11:34:18;;;;;;;10.55;1.52;;;;;;;;;;5050578;28;20025;-59
2020/12/29 11:36:44;;;;;;;16.70;2.70;;;;;;;;;;5049946;28;20085;-59
2020/12/29 11:39:10;;;;;;;18.58;2.53;;;;;;;;;;5049843;28;20017;-59
2020/12/29 11:41:36;;;;;;;18.25;3.60;;;;;;;;;;5049332;28;20033;-57
2020/12/29 11:44:02;;;;;;;10.63;1.90;;;;;;;;;;5049295;28;20025;-58
2020/12/29 11:46:28;;;;;;;31.33;3.60;;;;;;;;;;5052659;28;20183;-59
2020/12/29 11:48:54;;;;;;;11.68;2.10;;;;;;;;;;5048130;28;20067;-59
2020/12/29 11:51:20;;;;;;;15.02;1.52;;;;;;;;;;5047938;28;20118;-59
2020/12/29 11:53:46;;;;;;;4.60;1.05;;;;;;;;;;5049804;28;20024;-59
2020/12/29 11:56:13;;;;;;;14.82;1.08;;;;;;;;;;5051018;28;20455;-59
2020/12/29 11:58:39;;;;;;;11.45;1.83;;;;;;;;;;5049539;28;20091;-72
2020/12/29 12:01:05;;;;;;;9.13;1.55;;;;;;;;;;5045130;28;20041;-73
2020/12/29 12:03:31;;;;;;;6.72;1.77;;;;;;;;;;5048314;28;20021;-70
2020/12/29 12:05:57;;;;;;;7.82;1.50;;;;;;;;;;5049463;28;20036;-71
2020/12/29 12:08:23;;;;;;;9.43;1.92;;;;;;;;;;5048857;28;20103;-75
2020/12/29 12:10:50;;;;;;;11.13;2.00;;;;;;;;;;5049075;28;20040;-66
2020/12/29 12:13:16;;;;;;;12.52;2.30;;;;;;;;;;5049591;28;20512;-72
2020/12/29 12:15:43;;;;;;;12.73;1.80;;;;;;;;;;5049119;28;20051;-73
2020/12/29 12:18:09;;;;;;;16.13;2.22;;;;;;;;;;5050194;28;20033;-72
2020/12/29 12:20:35;;;;;;;14.57;2.08;;;;;;;;;;5046954;28;20033;-74
2020/12/29 12:23:01;;;;;;;11.52;2.10;;;;;;;;;;5047486;28;20051;-73
2020/12/29 12:25:27;;;;;;;13.63;2.15;;;;;;;;;;5048731;28;20037;-74
2020/12/29 12:27:53;;;;;;;13.93;3.58;;;;;;;;;;5038430;28;20120;-70
2020/12/29 12:30:19;;;;;;;10.35;1.13;;;;;;;;;;5049074;28;20067;-70
2020/12/29 12:32:45;;;;;;;6.95;0.90;;;;;;;;;;5051186;28;20069;-70
2020/12/29 12:35:12;;;;;;;7.97;1.20;;;;;;;;;;5049222;28;20021;-70
2020/12/29 12:37:38;;;;;;;3.17;1.00;;;;;;;;;;5058649;28;20548;-68
2020/12/29 12:40:04;;;;;;;9.32;1.92;;;;;;;;;;5051257;28;20112;-65
2020/12/29 12:42:30;;;;;;;5.63;1.30;;;;;;;;;;5055495;28;20103;-61
2020/12/29 12:44:56;;;;;;;11.00;2.35;;;;;;;;;;5050032;28;20036;-61
2020/12/29 12:47:22;;;;;;;10.43;1.80;;;;;;;;;;5052644;28;20032;-60
2020/12/29 12:49:48;;;;;;;12.70;1.98;;;;;;;;;;5055369;28;20025;-63
2020/12/29 12:52:15;;;;;;;22.77;4.57;;;;;;;;;;5053099;28;20041;-62
2020/12/29 12:54:41;;;;;;;10.45;2.20;;;;;;;;;;5053607;28;20025;-62
2020/12/29 12:57:07;;;;;;;12.30;2.90;;;;;;;;;;5052026;28;20462;-61
2020/12/29 12:59:33;;;;;;;20.27;2.30;;;;;;;;;;5049796;28;20103;-61
2020/12/29 13:01:59;;;;;;;14.23;2.58;;;;;;;;;;5047727;28;20048;-61
2020/12/29 13:04:25;;;;;;;8.50;1.70;;;;;;;;;;5046500;28;20021;-61
2020/12/29 13:06:52;;;;;;;18.45;3.35;;;;;;;;;;5048454;28;20060;-61
2020/12/29 13:09:18;;;;;;;11.60;2.25;;;;;;;;;;5048218;28;20033;-61
2020/12/29 13:11:46;;;;;;;11.20;2.55;;;;;;;;;;5049596;28;20036;-61
2020/12/29 13:14:12;;;;;;;14.68;2.08;;;;;;;;;;5046049;28;20022;-61
2020/12/29 13:16:38;;;;;;;12.18;2.60;;;;;;;;;;5054889;28;20509;-61
2020/12/29 13:19:04;;;;;;;10.93;2.88;;;;;;;;;;5050160;28;20036;-65
2020/12/29 13:21:30;;;;;;;15.35;2.38;;;;;;;;;;5050116;28;20124;-66
2020/12/29 13:23:57;;;;;;;14.73;2.20;;;;;;;;;;5047615;28;20486;-66
2020/12/29 13:26:23;;;;;;;7.05;1.60;;;;;;;;;;5050115;28;20033;-65
2020/12/29 13:28:49;;;;;;;9.38;1.73;;;;;;;;;;5054419;28;20040;-67
2020/12/29 13:31:15;;;;;;;15.63;2.20;;;;;;;;;;5052158;28;20041;-66
2020/12/29 13:33:41;;;;;;;11.18;1.83;;;;;;;;;;5051533;28;20063;-65
2020/12/29 13:36:08;;;;;;;13.73;2.30;;;;;;;;;;5048842;28;20017;-65
2020/12/29 13:38:35;;;;;;;12.63;3.15;;;;;;;;;;5047422;28;20449;-65
2020/12/29 13:41:01;;;;;;;9.13;2.30;;;;;;;;;;5047083;28;20048;-66
2020/12/29 13:43:28;;;;;;;9.45;1.75;;;;;;;;;;5046531;28;20025;-66
2020/12/29 13:45:55;;;;;;;15.65;1.25;;;;;;;;;;5046926;28;20398;-66
2020/12/29 13:48:21;;;;;;;6.63;1.17;;;;;;;;;;5048493;28;20021;-67
2020/12/29 13:50:48;;;;;;;10.73;1.98;;;;;;;;;;5047232;28;20033;-67
2020/12/29 13:53:14;;;;;;;8.95;1.50;;;;;;;;;;5048031;28;20065;-66
2020/12/29 13:55:43;;;;;;;10.30;1.65;;;;;;;;;;5050332;28;20029;-66
2020/12/29 13:58:09;;;;;;;8.15;1.23;;;;;;;;;;5047407;28;20079;-66
2020/12/29 14:00:35;;;;;;;8.68;1.15;;;;;;;;;;5047311;28;20029;-65
2020/12/29 14:03:01;;;;;;;10.27;1.17;;;;;;;;;;5047047;28;20064;-66
2020/12/29 14:05:28;;;;;;;9.38;1.30;;;;;;;;;;5046681;28;20104;-67
2020/12/29 14:07:54;;;;;;;9.73;1.42;;;;;;;;;;5049693;28;20112;-65
2020/12/29 14:10:20;;;;;;;6.13;1.55;;;;;;;;;;5050001;28;20037;-65
2020/12/29 14:12:46;;;;;;;12.77;2.28;;;;;;;;;;5050873;28;20032;-65
2020/12/29 14:15:12;;;;;;;12.18;1.67;;;;;;;;;;5051808;28;20025;-61
2020/12/29 14:17:38;;;;;;;9.43;1.90;;;;;;;;;;5051443;28;20506;-61
2020/12/29 14:20:05;;;;;;;10.73;2.08;;;;;;;;;;5052760;28;20018;-60
2020/12/29 14:22:31;;;;;;;10.75;1.35;;;;;;;;;;5052958;28;20102;-61
2020/12/29 14:24:58;;;;;;;11.63;1.80;;;;;;;;;;5051610;28;20498;-61
2020/12/29 14:27:25;;;;;;;11.63;2.10;;;;;;;;;;5051463;28;20086;-60
2020/12/29 14:29:51;;;;;;;6.68;1.10;;;;;;;;;;5051813;28;20387;-62
2020/12/29 14:32:18;;;;;;;9.35;2.00;;;;;;;;;;5035754;28;20087;-61
2020/12/29 14:34:44;;;;;;;15.32;2.08;;;;;;;;;;5050239;28;20029;-61
2020/12/29 14:37:10;;;;;;;11.95;2.00;;;;;;;;;;5051216;28;20029;-61
2020/12/29 14:39:36;;;;;;;13.38;2.15;;;;;;;;;;5051426;28;20096;-61
2020/12/29 14:42:02;;;;;;;14.02;2.13;;;;;;;;;;5051175;28;20044;-61
2020/12/29 14:44:29;;;;;;;11.60;1.73;;;;;;;;;;5050912;28;20032;-61
2020/12/29 14:47:00;;;;;;;6.55;1.58;;;;;;;;;;5053494;28;20035;-61
2020/12/29 14:49:26;;;;;;;8.35;1.92;;;;;;;;;;5051587;28;20068;-61
2020/12/29 14:51:52;;;;;;;10.38;1.35;;;;;;;;;;5050787;28;20086;-61
2020/12/29 14:54:19;;;;;;;6.00;1.00;;;;;;;;;;5050514;28;20024;-61
2020/12/29 14:56:45;;;;;;;2.83;0.90;;;;;;;;;;5051195;28;20025;-61
2020/12/29 14:59:11;;;;;;;6.90;1.30;;;;;;;;;;5051686;28;20033;-61
2020/12/29 15:01:38;;;;;;;10.32;1.10;;;;;;;;;;5052478;28;20055;-60
2020/12/29 15:04:07;;;;;;;9.40;1.50;;;;;;;;;;5050736;28;20033;-61
2020/12/29 15:06:34;;;;;;;13.18;1.75;;;;;;;;;;5050618;28;20036;-62
2020/12/29 15:09:01;;;;;;;13.65;3.17;;;;;;;;;;5051624;28;20517;-61
2020/12/29 15:11:28;;;;;;;10.48;1.58;;;;;;;;;;5049312;28;20112;-60
2020/12/29 15:13:55;;;;;;;8.45;1.30;;;;;;;;;;5052458;28;20028;-61
2020/12/29 15:16:21;;;;;;;7.80;1.20;;;;;;;;;;5052191;28;20033;-61
2020/12/29 15:18:47;;;;;;;9.40;2.50;;;;;;;;;;5049110;28;20367;-61
2020/12/29 15:21:13;;;;;;;11.68;1.45;;;;;;;;;;5051368;28;20039;-60
2020/12/29 15:23:40;;;;;;;9.82;1.13;;;;;;;;;;5049661;28;20114;-60
2020/12/29 15:26:07;;;;;;;8.43;1.38;;;;;;;;;;5052342;28;20032;-61
2020/12/29 15:28:33;;;;;;;11.52;1.50;;;;;;;;;;5050514;28;20457;-62
2020/12/29 15:31:00;;;;;;;10.68;2.38;;;;;;;;;;5049962;28;20064;-61
2020/12/29 15:33:27;;;;;;;11.73;2.47;;;;;;;;;;5049598;28;20023;-61
2020/12/29 15:35:53;;;;;;;9.32;2.10;;;;;;;;;;5050015;28;20112;-62
2020/12/29 15:38:19;;;;;;;8.30;2.25;;;;;;;;;;5050028;28;20418;-63
2020/12/29 15:40:46;;;;;;;10.70;2.30;;;;;;;;;;5053469;28;20024;-61
2020/12/29 15:43:12;;;;;;;19.23;2.92;;;;;;;;;;5049791;28;20056;-61
2020/12/29 15:45:38;;;;;;;14.15;2.28;;;;;;;;;;5051561;28;20132;-61
2020/12/29 15:48:05;;;;;;;11.88;2.58;;;;;;;;;;5049877;28;20017;-61
2020/12/29 15:50:31;;;;;;;7.45;1.50;;;;;;;;;;5049925;28;20025;-61
2020/12/29 15:52:59;;;;;;;8.05;2.97;;;;;;;;;;5052294;28;20044;-61
2020/12/29 15:55:25;;;;;;;10.35;1.73;;;;;;;;;;5050874;28;20033;-61
2020/12/29 15:57:51;;;;;;;6.53;1.88;;;;;;;;;;5049946;28;20024;-62
2020/12/29 16:00:17;;;;;;;6.68;1.70;;;;;;;;;;5049739;28;20029;-61
2020/12/29 16:02:43;;;;;;;8.32;1.77;;;;;;;;;;5047361;28;20580;-61
2020/12/29 16:05:11;;;;;;;12.10;1.92;;;;;;;;;;5044708;28;21266;-62
2020/12/29 16:07:37;;;;;;;11.63;1.88;;;;;;;;;;5032244;28;20028;-61
2020/12/29 16:10:04;;;;;;;15.77;2.40;;;;;;;;;;5034232;28;20517;-61
2020/12/29 16:12:31;;;;;;;9.63;2.03;;;;;;;;;;5035701;28;20025;-62
2020/12/29 16:14:57;;;;;;;9.35;1.85;;;;;;;;;;5038081;28;20032;-61
2020/12/29 16:17:23;;;;;;;8.57;2.80;;;;;;;;;;5034578;28;20034;-64
2020/12/29 16:19:50;;;;;;;39.40;14.80;;;;;;;;;;5037217;28;20392;-62
2020/12/29 16:22:16;;;;;;;25.08;9.68;;;;;;;;;;5035981;28;20548;-62
2020/12/29 16:24:43;;;;;;;13.40;5.40;;;;;;;;;;5037579;28;20033;-60
2020/12/29 16:27:12;;;;;;;12.90;2.20;;;;;;;;;;5033826;28;20025;-61
2020/12/29 16:29:41;;;;;;;6.82;2.38;;;;;;;;;;5032593;28;20119;-62
2020/12/29 16:32:14;;;;;;;3.95;1.45;;;;;;;;;;5013639;28;20048;-63
2020/12/29 16:34:40;;;;;;;6.50;1.83;;;;;;;;;;5031554;28;20072;-67
2020/12/29 16:37:10;;;;;;;15.43;1.80;;;;;;;;;;5033291;28;20029;-63
2020/12/29 16:39:36;;;;;;;7.88;1.35;;;;;;;;;;5038654;28;20036;-61
2020/12/29 16:42:20;;;;;;;9.98;1.92;;;;;;;;;;5034429;28;20060;-61
2020/12/29 16:44:47;;;;;;;7.97;1.10;;;;;;;;;;5032035;28;20036;-61
2020/12/29 16:47:15;;;;;;;6.32;2.45;;;;;;;;;;5033755;28;20021;-61
2020/12/29 16:49:41;;;;;;;13.75;4.10;;;;;;;;;;5034525;28;20056;-61
2020/12/29 16:52:07;;;;;;;12.52;2.45;;;;;;;;;;5039845;28;20425;-67
2020/12/29 16:54:33;;;;;;;38.13;10.70;;;;;;;;;;5043871;28;20034;-67
2020/12/29 16:57:03;;;;;;;23.52;7.90;;;;;;;;;;5036480;28;20497;-66
2020/12/29 16:59:29;;;;;;;13.95;5.97;;;;;;;;;;5034375;28;20025;-67
2020/12/29 17:01:55;;;;;;;15.80;4.95;;;;;;;;;;5040169;28;20171;-66
2020/12/29 17:04:21;;;;;;;17.73;5.88;;;;;;;;;;5046388;28;20103;-66
2020/12/29 17:06:48;;;;;;;13.77;4.13;;;;;;;;;;5045923;28;20025;-67
2020/12/29 17:09:14;;;;;;;6.60;2.95;;;;;;;;;;5045143;28;20021;-67
2020/12/29 17:11:41;;;;;;;9.63;3.33;;;;;;;;;;5045548;28;20036;-67
2020/12/29 17:14:07;;;;;;;9.85;2.47;;;;;;;;;;5048011;28;20029;-66
2020/12/29 17:16:33;;;;;;;11.38;1.83;;;;;;;;;;5048246;28;20449;-67
2020/12/29 17:18:59;;;;;;;8.60;2.38;;;;;;;;;;5047825;28;20104;-68
2020/12/29 17:21:26;;;;;;;11.10;1.90;;;;;;;;;;5047891;28;20036;-65
2020/12/29 17:23:52;;;;;;;12.48;3.30;;;;;;;;;;5047193;28;20401;-68
2020/12/29 17:26:19;;;;;;;12.80;2.42;;;;;;;;;;5047325;28;20036;-62
2020/12/29 17:28:46;;;;;;;11.75;5.80;;;;;;;;;;5046003;28;20039;-61
2020/12/29 17:31:13;;;;;;;19.75;8.18;;;;;;;;;;5047804;28;20099;-62
2020/12/29 17:33:39;;;;;;;8.38;2.90;;;;;;;;;;5047870;28;20096;-63
2020/12/29 17:36:05;;;;;;;13.35;3.42;;;;;;;;;;5047282;28;20275;-62
2020/12/29 17:38:32;;;;;;;14.82;3.33;;;;;;;;;;5047810;28;20018;-63
2020/12/29 17:40:58;;;;;;;12.48;3.63;;;;;;;;;;5049652;28;20040;-62
2020/12/29 17:43:24;;;;;;;11.23;3.00;;;;;;;;;;5050068;28;20036;-63
2020/12/29 17:45:50;;;;;;;8.88;2.10;;;;;;;;;;5047605;28;20037;-63
2020/12/29 17:48:16;;;;;;;15.73;3.97;;;;;;;;;;5047955;28;20021;-63
2020/12/29 17:50:43;;;;;;;10.20;3.47;;;;;;;;;;5047475;28;20044;-64
2020/12/29 17:53:09;;;;;;;12.35;3.05;;;;;;;;;;5048642;28;20029;-63
2020/12/29 17:55:35;;;;;;;10.20;2.47;;;;;;;;;;5050137;28;20415;-62
2020/12/29 17:58:06;;;;;;;12.35;2.42;;;;;;;;;;5046455;28;20021;-61
2020/12/29 18:00:32;;;;;;;11.52;3.47;;;;;;;;;;5046768;28;20025;-63
2020/12/29 18:03:00;;;;;;;13.48;2.85;;;;;;;;;;5047357;28;20044;-63
2020/12/29 18:05:26;;;;;;;13.30;2.78;;;;;;;;;;5047301;28;20035;-61
2020/12/29 18:07:53;;;;;;;9.98;3.33;;;;;;;;;;5050278;28;20037;-62
2020/12/29 18:10:19;;;;;;;13.43;3.50;;;;;;;;;;5047743;28;20116;-62
2020/12/29 18:12:45;;;;;;;11.48;3.00;;;;;;;;;;5046425;28;20041;-62
2020/12/29 18:15:11;;;;;;;12.75;1.85;;;;;;;;;;5046639;28;20074;-63
2020/12/29 18:17:37;;;;;;;8.70;2.22;;;;;;;;;;5047664;28;20040;-62
2020/12/29 18:20:04;;;;;;;8.20;1.70;;;;;;;;;;5047658;28;20048;-61
2020/12/29 18:22:30;;;;;;;14.20;1.73;;;;;;;;;;5045134;28;20021;-64
2020/12/29 18:24:56;;;;;;;13.32;2.67;;;;;;;;;;5046030;28;20026;-62
2020/12/29 18:27:23;;;;;;;12.75;1.80;;;;;;;;;;5053159;28;20036;-66
2020/12/29 18:29:49;;;;;;;7.05;1.80;;;;;;;;;;5046021;28;20020;-61
2020/12/29 18:32:16;;;;;;;10.27;2.35;;;;;;;;;;5055846;28;20036;-62
2020/12/29 18:34:42;;;;;;;9.63;2.05;;;;;;;;;;5054502;28;20112;-61
2020/12/29 18:37:08;;;;;;;12.70;2.08;;;;;;;;;;5050500;28;20029;-61
2020/12/29 18:39:34;;;;;;;6.53;1.63;;;;;;;;;;5051119;28;20398;-62
2020/12/29 18:42:00;;;;;;;10.77;2.03;;;;;;;;;;5050628;28;20444;-61
2020/12/29 18:44:26;;;;;;;11.88;2.20;;;;;;;;;;5046208;28;20071;-62
2020/12/29 18:46:52;;;;;;;11.20;1.67;;;;;;;;;;5048650;28;20073;-61
2020/12/29 18:49:19;;;;;;;8.07;1.73;;;;;;;;;;5049574;28;20029;-62
2020/12/29 18:51:45;;;;;;;10.25;1.40;;;;;;;;;;5050876;28;20182;-61
2020/12/29 18:54:11;;;;;;;9.05;1.75;;;;;;;;;;5050733;28;20386;-62
2020/12/29 18:56:37;;;;;;;10.38;1.85;;;;;;;;;;5048873;28;20409;-62
2020/12/29 18:59:03;;;;;;;9.02;1.70;;;;;;;;;;5053694;28;20099;-61
2020/12/29 19:01:30;;;;;;;8.38;1.38;;;;;;;;;;5052839;28;20113;-62
2020/12/29 19:03:57;;;;;;;10.13;1.63;;;;;;;;;;5052018;28;20553;-63
2020/12/29 19:06:23;;;;;;;11.02;2.40;;;;;;;;;;5046502;28;20036;-61
2020/12/29 19:08:51;;;;;;;12.90;2.08;;;;;;;;;;5050524;28;20033;-61
2020/12/29 19:11:18;;;;;;;12.73;2.75;;;;;;;;;;5052324;28;20037;-61
2020/12/29 19:13:44;;;;;;;10.27;1.90;;;;;;;;;;5034577;28;20021;-62
2020/12/29 19:16:10;;;;;;;12.80;1.92;;;;;;;;;;5041295;28;20025;-61
2020/12/29 19:18:36;;;;;;;9.88;1.20;;;;;;;;;;5045140;28;20029;-61
2020/12/29 19:21:02;;;;;;;9.75;1.80;;;;;;;;;;5045122;28;20486;-61
2020/12/29 19:23:29;;;;;;;4.60;1.25;;;;;;;;;;5038452;28;20102;-61
2020/12/29 19:25:55;;;;;;;10.00;1.98;;;;;;;;;;5034298;28;20030;-62
2020/12/29 19:28:21;;;;;;;9.88;1.60;;;;;;;;;;5040405;28;20368;-62
2020/12/29 19:30:47;;;;;;;6.30;1.77;;;;;;;;;;5038223;28;20041;-62
2020/12/29 19:33:13;;;;;;;7.97;1.13;;;;;;;;;;5039651;28;20025;-62
2020/12/29 19:35:39;;;;;;;9.45;1.48;;;;;;;;;;5047849;28;20022;-62
2020/12/29 19:38:05;;;;;;;10.80;1.63;;;;;;;;;;5049463;28;20033;-64
2020/12/29 19:40:32;;;;;;;12.30;1.70;;;;;;;;;;5049105;28;20395;-62
2020/12/29 19:42:58;;;;;;;18.73;2.88;;;;;;;;;;5047685;28;20094;-65
2020/12/29 19:45:24;;;;;;;15.20;2.33;;;;;;;;;;5046713;28;20025;-66
2020/12/29 19:47:50;;;;;;;10.55;1.55;;;;;;;;;;5048244;28;20470;-65
2020/12/29 19:50:19;;;;;;;12.55;2.58;;;;;;;;;;5048046;28;20040;-64
2020/12/29 19:52:45;;;;;;;20.15;2.70;;;;;;;;;;5047035;28;20379;-64
2020/12/29 19:55:11;;;;;;;11.00;2.28;;;;;;;;;;5046136;28;20090;-64
2020/12/29 19:57:38;;;;;;;10.35;1.73;;;;;;;;;;5049353;28;20036;-63
2020/12/29 20:00:04;;;;;;;5.47;1.20;;;;;;;;;;5047832;28;20021;-64
2020/12/29 20:02:31;;;;;;;8.07;1.90;;;;;;;;;;5049928;28;20048;-63
2020/12/29 20:04:57;;;;;;;9.13;1.85;;;;;;;;;;5038261;28;20521;-63
2020/12/29 20:07:23;;;;;;;9.88;1.33;;;;;;;;;;5046536;28;20520;-63
2020/12/29 20:09:49;;;;;;;11.32;2.55;;;;;;;;;;5044760;28;20033;-62
2020/12/29 20:12:16;;;;;;;9.65;1.75;;;;;;;;;;5041201;28;20028;-66
2020/12/29 20:14:42;;;;;;;9.00;1.65;;;;;;;;;;5047460;28;20021;-64
2020/12/29 20:17:08;;;;;;;8.95;1.60;;;;;;;;;;5046381;28;20466;-63
2020/12/29 20:19:34;;;;;;;8.23;1.48;;;;;;;;;;5049544;28;20075;-63
2020/12/29 20:22:00;;;;;;;7.45;1.65;;;;;;;;;;5046188;28;20486;-63
2020/12/29 20:24:27;;;;;;;10.88;1.75;;;;;;;;;;5045259;28;20111;-63
2020/12/29 20:26:53;;;;;;;8.93;3.25;;;;;;;;;;5036430;28;20147;-64
2020/12/29 20:29:19;;;;;;;20.10;2.83;;;;;;;;;;5049431;28;20026;-63
2020/12/29 20:31:45;;;;;;;18.67;5.78;;;;;;;;;;5046649;28;20041;-63
2020/12/29 20:34:11;;;;;;;22.08;5.18;;;;;;;;;;5037722;28;20037;-63